createdAt,value
2019-05-17T00:00:21.274Z,33.599998
2019-05-17T00:01:20.359Z,32.400002
2019-05-17T00:02:20.404Z,33
2019-05-17T00:03:20.492Z,32.099998
2019-05-17T00:04:20.573Z,31.799999
2019-05-17T00:05:20.628Z,32.5
2019-05-17T00:06:20.685Z,33.400002
2019-05-17T00:07:20.783Z,33
2019-05-17T00:08:31.822Z,33.299999
2019-05-17T00:09:21.890Z,31.5
2019-05-17T00:10:20.953Z,33
2019-05-17T00:11:21.016Z,32.599998
2019-05-17T00:12:21.105Z,32.299999
2019-05-17T00:13:21.208Z,32.400002
2019-05-17T00:14:21.261Z,34.200001
2019-05-17T00:15:21.309Z,32.700001
2019-05-17T00:16:21.431Z,32.799999
2019-05-17T00:17:21.518Z,32.799999
2019-05-17T00:18:21.602Z,34.5
2019-05-17T00:19:22.637Z,33.400002
2019-05-17T00:20:21.691Z,34.5
2019-05-17T00:21:21.763Z,36.099998
2019-05-17T00:22:21.830Z,35
2019-05-17T00:23:21.892Z,34.200001
2019-05-17T00:24:21.952Z,34.799999
2019-05-17T00:25:23.009Z,34.700001
2019-05-17T00:26:23.113Z,35.900002
2019-05-17T00:27:23.175Z,34.700001
2019-05-17T00:28:23.274Z,35.799999
2019-05-17T00:29:23.335Z,35.900002
2019-05-17T00:31:23.467Z,35.700001
2019-05-17T00:32:22.510Z,35.099998
2019-05-17T00:33:22.585Z,35.900002
2019-05-17T00:34:23.638Z,35.700001
2019-05-17T00:35:23.676Z,35.900002
2019-05-17T00:36:23.729Z,35.700001
2019-05-17T00:37:23.768Z,35
2019-05-17T00:38:22.835Z,35.5
2019-05-17T00:39:22.900Z,36.400002
2019-05-17T00:40:22.981Z,36.5
2019-05-17T00:41:23.050Z,35.900002
2019-05-17T00:42:26.270Z,35.599998
2019-05-17T00:43:23.222Z,35.400002
2019-05-17T00:44:49.249Z,36.299999
2019-05-17T00:45:23.419Z,36.299999
2019-05-17T00:46:26.486Z,36.700001
2019-05-17T00:47:23.515Z,36.5
2019-05-17T00:48:26.429Z,35.900002
2019-05-17T00:51:27.231Z,36.799999
2019-05-17T00:52:23.837Z,36.200001
2019-05-17T00:53:26.750Z,37.099998
2019-05-17T00:54:23.929Z,35.900002
2019-05-17T00:55:26.782Z,35.599998
2019-05-17T00:56:26.462Z,36.299999
2019-05-17T00:57:24.059Z,34.5
2019-05-17T00:58:26.267Z,35.400002
2019-05-17T01:01:27.010Z,35.599998
2019-05-17T01:02:24.354Z,36
2019-05-17T01:03:26.770Z,35.299999
2019-05-17T01:04:24.515Z,35
2019-05-17T01:05:27.450Z,36.700001
2019-05-17T01:06:24.630Z,35.799999
2019-05-17T01:07:26.816Z,36.200001
2019-05-17T01:08:26.496Z,36.700001
2019-05-17T01:09:27.139Z,35.5
2019-05-17T01:10:27.082Z,33.900002
2019-05-17T01:11:26.935Z,36.400002
2019-05-17T01:12:26.961Z,36.099998
2019-05-17T01:13:26.673Z,36.5
2019-05-17T01:14:26.544Z,36
2019-05-17T01:15:27.163Z,36.299999
2019-05-17T01:16:27.090Z,36.5
2019-05-17T01:17:27.052Z,36.400002
2019-05-17T01:18:26.894Z,36.400002
2019-05-17T01:19:26.964Z,35
2019-05-17T01:20:27.551Z,35
2019-05-17T01:21:26.253Z,35.200001
2019-05-17T01:22:26.234Z,34.599998
2019-05-17T01:23:27.086Z,35.799999
2019-05-17T01:24:27.391Z,36.5
2019-05-17T01:25:27.231Z,35.099998
2019-05-17T01:26:26.683Z,37.599998
2019-05-17T01:27:26.340Z,36.400002
2019-05-17T01:28:26.903Z,36.200001
2019-05-17T01:29:26.791Z,36.5
2019-05-17T01:30:26.600Z,37.5
2019-05-17T01:31:26.551Z,38.099998
2019-05-17T01:32:26.684Z,37.599998
2019-05-17T01:33:26.575Z,38.299999
2019-05-17T01:34:27.194Z,36.799999
2019-05-17T01:35:26.774Z,36.400002
2019-05-17T01:36:26.493Z,37
2019-05-17T01:37:27.670Z,37
2019-05-17T01:38:26.896Z,37.099998
2019-05-17T01:39:26.904Z,35.5
2019-05-17T01:40:26.568Z,36.700001
2019-05-17T01:41:26.753Z,37.200001
2019-05-17T01:42:26.639Z,36.5
2019-05-17T01:43:27.318Z,36.700001
2019-05-17T01:44:27.193Z,36.5
2019-05-17T01:45:26.992Z,36.5
2019-05-17T01:46:26.909Z,36.700001
2019-05-17T01:47:27.294Z,36.5
2019-05-17T01:48:27.183Z,36.5
2019-05-17T01:49:27.215Z,37.099998
2019-05-17T01:50:27.107Z,36.200001
2019-05-17T01:51:27.153Z,35.400002
2019-05-17T01:52:27.411Z,37.400002
2019-05-17T01:53:27.253Z,37.099998
2019-05-17T01:54:27.336Z,36.099998
2019-05-17T01:55:27.413Z,36.5
2019-05-17T01:56:27.468Z,36.099998
2019-05-17T01:57:27.581Z,36.200001
2019-05-17T01:58:27.603Z,35.799999
2019-05-17T01:59:27.653Z,35.400002
2019-05-17T02:00:27.785Z,36.200001
2019-05-17T02:01:27.849Z,35
2019-05-17T02:02:27.934Z,35.700001
2019-05-17T02:03:27.986Z,36.200001
2019-05-17T02:04:28.052Z,36.400002
2019-05-17T02:05:28.135Z,36.299999
2019-05-17T02:06:28.207Z,35.799999
2019-05-17T02:07:29.261Z,34.799999
2019-05-17T02:08:28.300Z,35.799999
2019-05-17T02:09:36.887Z,34.299999
2019-05-17T02:10:28.444Z,33.599998
2019-05-17T02:11:28.490Z,35.099998
2019-05-17T02:12:28.535Z,34.900002
2019-05-17T02:13:28.579Z,34.200001
2019-05-17T02:14:28.635Z,35.799999
2019-05-17T02:15:28.733Z,36.200001
2019-05-17T02:16:28.783Z,37.799999
2019-05-17T02:17:28.847Z,35.700001
2019-05-17T02:18:28.894Z,34.799999
2019-05-17T02:19:28.938Z,35.099998
2019-05-17T02:20:29.024Z,32.900002
2019-05-17T02:21:29.104Z,33.799999
2019-05-17T02:22:29.155Z,34.299999
2019-05-17T02:23:29.195Z,34.200001
2019-05-17T02:24:29.248Z,33.400002
2019-05-17T02:25:29.306Z,34.400002
2019-05-17T02:26:29.388Z,33.799999
2019-05-17T02:27:35.550Z,33.200001
2019-05-17T02:28:32.112Z,32.799999
2019-05-17T02:29:29.486Z,32.5
2019-05-17T02:30:29.547Z,34.400002
2019-05-17T02:31:32.645Z,34
2019-05-17T02:32:33.468Z,32.900002
2019-05-17T02:33:33.118Z,32.299999
2019-05-17T02:34:29.746Z,32.599998
2019-05-17T02:35:33.591Z,33.400002
2019-05-17T02:36:33.215Z,32.700001
2019-05-17T02:37:33.156Z,32.400002
2019-05-17T02:38:33.165Z,32.900002
2019-05-17T02:41:33.235Z,32.700001
2019-05-17T02:42:32.976Z,32.299999
2019-05-17T02:43:33.366Z,32.799999
2019-05-17T02:44:33.142Z,32.099998
2019-05-17T02:45:32.676Z,32.700001
2019-05-17T02:46:33.762Z,31.700001
2019-05-17T02:47:33.292Z,32
2019-05-17T02:48:33.703Z,32.299999
2019-05-17T02:51:32.348Z,31
2019-05-17T02:52:32.804Z,31.5
2019-05-17T02:53:33.418Z,31
2019-05-17T02:54:32.743Z,30.700001
2019-05-17T02:55:32.379Z,30.299999
2019-05-17T02:56:32.724Z,30.9
2019-05-17T02:57:30.879Z,29.799999
2019-05-17T02:58:33.043Z,31
2019-05-17T03:01:33.107Z,30.9
2019-05-17T03:02:34.038Z,30.4
2019-05-17T03:03:32.372Z,30.4
2019-05-17T03:04:32.634Z,31.299999
2019-05-17T03:05:33.670Z,30.6
2019-05-17T03:06:32.764Z,30
2019-05-17T03:07:32.565Z,29.700001
2019-05-17T03:08:34.001Z,29.299999
2019-05-17T03:09:33.489Z,30.5
2019-05-17T03:10:33.456Z,31.4
2019-05-17T03:11:33.237Z,30.700001
2019-05-17T03:12:32.839Z,30.5
2019-05-17T03:13:32.827Z,30.700001
2019-05-17T03:14:32.696Z,29.4
2019-05-17T03:15:32.362Z,29.5
2019-05-17T03:16:33.806Z,29.4
2019-05-17T03:17:33.741Z,31
2019-05-17T03:18:33.287Z,29.4
2019-05-17T03:19:32.709Z,30.4
2019-05-17T03:20:32.894Z,29.4
2019-05-17T03:21:33.691Z,29.299999
2019-05-17T03:22:33.094Z,29
2019-05-17T03:23:32.781Z,28.5
2019-05-17T03:24:33.239Z,29
2019-05-17T03:25:33.323Z,29.4
2019-05-17T03:26:32.869Z,29.299999
2019-05-17T03:27:33.633Z,29
2019-05-17T03:28:33.639Z,28.700001
2019-05-17T03:29:33.440Z,28.700001
2019-05-17T03:30:36.285Z,28.700001
2019-05-17T03:31:40.493Z,29.5
2019-05-17T03:32:35.923Z,28.1
2019-05-17T03:33:35.747Z,28.5
2019-05-17T03:34:36.789Z,28.799999
2019-05-17T03:35:37.292Z,28
2019-05-17T03:36:36.025Z,29
2019-05-17T03:37:37.638Z,29.1
2019-05-17T03:38:33.561Z,28.1
2019-05-17T03:41:34.139Z,28.200001
2019-05-17T03:42:33.268Z,28.5
2019-05-17T03:43:35.088Z,28.799999
2019-05-17T03:44:33.319Z,29.4
2019-05-17T03:45:33.853Z,28.799999
2019-05-17T03:46:33.485Z,29.799999
2019-05-17T03:47:33.538Z,28.299999
2019-05-17T03:48:33.642Z,28.700001
2019-05-17T03:49:33.411Z,28.6
2019-05-17T03:50:33.862Z,27.799999
2019-05-17T03:51:33.615Z,28.4
2019-05-17T03:52:33.606Z,28.200001
2019-05-17T03:53:33.806Z,28.200001
2019-05-17T03:54:33.816Z,28.700001
2019-05-17T03:55:33.961Z,28
2019-05-17T03:56:33.942Z,28.6
2019-05-17T03:57:34.114Z,26.799999
2019-05-17T03:58:34.165Z,29.299999
2019-05-17T03:59:34.171Z,27.6
2019-05-17T04:00:35.210Z,27.799999
2019-05-17T04:01:34.174Z,27.200001
2019-05-17T04:02:34.219Z,28.799999
2019-05-17T04:03:35.447Z,28.9
2019-05-17T04:04:34.252Z,27.9
2019-05-17T04:05:34.244Z,27.9
2019-05-17T04:06:34.237Z,28.1
2019-05-17T04:07:34.232Z,27.4
2019-05-17T04:08:34.274Z,27.700001
2019-05-17T04:09:37.588Z,27.9
2019-05-17T04:10:34.291Z,26.9
2019-05-17T04:11:36.326Z,26.9
2019-05-17T04:12:34.644Z,27.299999
2019-05-17T04:13:34.713Z,27.6
2019-05-17T04:14:34.805Z,27.5
2019-05-17T04:15:34.816Z,26.6
2019-05-17T04:16:34.813Z,27.1
2019-05-17T04:17:34.820Z,27
2019-05-17T04:18:34.827Z,26.5
2019-05-17T04:19:34.917Z,25.799999
2019-05-17T04:20:34.912Z,25.299999
2019-05-17T04:21:34.905Z,24.799999
2019-05-17T04:22:34.915Z,25.6
2019-05-17T04:23:34.949Z,25.5
2019-05-17T04:24:35.012Z,25.4
2019-05-17T04:25:38.574Z,25.1
2019-05-17T04:26:35.143Z,26.1
2019-05-17T04:27:35.311Z,25.4
2019-05-17T04:28:35.316Z,25.1
2019-05-17T04:29:35.343Z,24.5
2019-05-17T04:30:35.343Z,24.5
2019-05-17T04:31:35.313Z,24.299999
2019-05-17T04:32:35.505Z,24.200001
2019-05-17T04:33:35.520Z,23.9
2019-05-17T04:34:35.582Z,24.299999
2019-05-17T04:35:35.599Z,23.799999
2019-05-17T04:36:35.609Z,23.700001
2019-05-17T04:37:38.390Z,23.200001
2019-05-17T04:38:35.762Z,23.9
2019-05-17T04:39:35.771Z,22.6
2019-05-17T04:40:35.790Z,23.200001
2019-05-17T04:41:44.849Z,23.799999
2019-05-17T04:42:36.927Z,23.5
2019-05-17T04:43:35.928Z,23.299999
2019-05-17T04:44:35.964Z,22.6
2019-05-17T04:45:35.955Z,23.1
2019-05-17T04:46:35.938Z,23.1
2019-05-17T04:47:36.106Z,22.799999
2019-05-17T04:48:36.118Z,21.799999
2019-05-17T04:49:36.177Z,23.299999
2019-05-17T04:50:36.174Z,22.5
2019-05-17T04:51:36.193Z,22.4
2019-05-17T04:52:36.195Z,21.9
2019-05-17T04:53:36.241Z,22.299999
2019-05-17T04:54:36.279Z,21
2019-05-17T04:55:36.268Z,20.4
2019-05-17T04:56:36.315Z,20.4
2019-05-17T04:57:36.353Z,20.4
2019-05-17T04:58:36.357Z,20
2019-05-17T04:59:36.399Z,20.700001
2019-05-17T05:00:37.384Z,19
2019-05-17T05:01:36.379Z,20.1
2019-05-17T05:02:36.378Z,20
2019-05-17T05:03:36.552Z,19.200001
2019-05-17T05:04:38.534Z,19
2019-05-17T05:05:36.602Z,18.799999
2019-05-17T05:06:36.628Z,18.5
2019-05-17T05:07:36.625Z,19.6
2019-05-17T05:08:36.633Z,19.200001
2019-05-17T05:09:36.661Z,18.799999
2019-05-17T05:10:38.524Z,18.200001
2019-05-17T05:11:51.832Z,17.799999
2019-05-17T05:12:36.679Z,17.6
2019-05-17T05:13:36.671Z,17.700001
2019-05-17T05:14:36.733Z,17.700001
2019-05-17T05:15:36.802Z,17.299999
2019-05-17T05:16:36.811Z,17.5
2019-05-17T05:17:36.832Z,16.9
2019-05-17T05:18:36.850Z,17
2019-05-17T05:19:36.845Z,16.6
2019-05-17T05:20:36.890Z,17.200001
2019-05-17T05:21:36.947Z,16.5
2019-05-17T05:22:36.974Z,16
2019-05-17T05:23:36.998Z,16
2019-05-17T05:24:37.040Z,15.9
2019-05-17T05:25:37.075Z,16.5
2019-05-17T05:26:37.099Z,15.7
2019-05-17T05:27:37.131Z,15.6
2019-05-17T05:28:37.145Z,15.6
2019-05-17T05:29:37.147Z,16.299999
2019-05-17T05:30:37.194Z,15.4
2019-05-17T05:31:37.227Z,16.1
2019-05-17T05:32:37.256Z,15.9
2019-05-17T05:33:37.301Z,15.5
2019-05-17T05:34:37.332Z,15.2
2019-05-17T05:35:37.384Z,14.9
2019-05-17T05:36:37.455Z,15.1
2019-05-17T05:37:37.474Z,14.9
2019-05-17T05:38:37.518Z,14.8
2019-05-17T05:39:37.542Z,14.6
2019-05-17T05:40:37.572Z,15
2019-05-17T05:41:37.597Z,14.5
2019-05-17T05:42:37.593Z,14
2019-05-17T05:43:37.587Z,14.5
2019-05-17T05:44:37.678Z,14.2
2019-05-17T05:45:37.736Z,13.9
2019-05-17T05:46:37.764Z,14.4
2019-05-17T05:47:37.782Z,13.8
2019-05-17T05:48:37.796Z,14.1
2019-05-17T05:49:37.797Z,13.6
2019-05-17T05:50:37.836Z,13.4
2019-05-17T05:51:37.905Z,13.8
2019-05-17T05:52:37.914Z,13.8
2019-05-17T05:53:37.919Z,13.7
2019-05-17T05:54:37.923Z,13.3
2019-05-17T05:55:37.918Z,13.4
2019-05-17T05:56:37.942Z,13.1
2019-05-17T05:57:37.932Z,12.8
2019-05-17T05:58:39.080Z,12.7
2019-05-17T05:59:38.233Z,13.2
2019-05-17T06:00:38.374Z,12.4
2019-05-17T06:01:38.567Z,12.2
2019-05-17T06:02:38.591Z,12.3
2019-05-17T06:03:38.583Z,11.7
2019-05-17T06:04:38.596Z,11.7
2019-05-17T06:05:38.602Z,12.3
2019-05-17T06:06:41.611Z,11.5
2019-05-17T06:07:38.822Z,12.5
2019-05-17T06:08:38.829Z,11.4
2019-05-17T06:09:38.839Z,11.8
2019-05-17T06:10:39.530Z,11.9
2019-05-17T06:11:41.475Z,11.2
2019-05-17T06:12:39.161Z,12.2
2019-05-17T06:13:39.168Z,11.3
2019-05-17T06:14:41.232Z,11.2
2019-05-17T06:15:39.172Z,11.5
2019-05-17T06:16:39.180Z,11.5
2019-05-17T06:17:39.240Z,11.4
2019-05-17T06:18:39.225Z,11.3
2019-05-17T06:19:39.240Z,11.6
2019-05-17T06:20:41.324Z,11.3
2019-05-17T06:21:39.248Z,11.5
2019-05-17T06:22:39.263Z,10.9
2019-05-17T06:23:39.273Z,10.8
2019-05-17T06:24:42.328Z,10.7
2019-05-17T06:25:39.405Z,11.3
2019-05-17T06:26:42.085Z,11
2019-05-17T06:27:41.485Z,10.9
2019-05-17T06:28:39.645Z,10.7
2019-05-17T06:29:41.477Z,10.9
2019-05-17T06:30:39.685Z,10.2
2019-05-17T06:31:39.672Z,10.6
2019-05-17T06:32:42.582Z,10.8
2019-05-17T06:33:41.977Z,9.8
2019-05-17T06:34:42.046Z,10.3
2019-05-17T06:35:42.229Z,10.5
2019-05-17T06:36:42.208Z,10.7
2019-05-17T06:37:42.181Z,10.5
2019-05-17T06:38:42.005Z,10.3
2019-05-17T06:39:41.899Z,10.2
2019-05-17T06:40:41.931Z,10.3
2019-05-17T06:41:41.866Z,10.4
2019-05-17T06:42:44.194Z,9.6
2019-05-17T06:43:41.595Z,10.1
2019-05-17T06:44:41.709Z,9.9
2019-05-17T06:45:41.816Z,9.6
2019-05-17T06:46:41.765Z,8.9
2019-05-17T06:47:42.543Z,9.6
2019-05-17T06:48:42.322Z,9.8
2019-05-17T06:49:42.346Z,9.4
2019-05-17T06:50:42.817Z,10
2019-05-17T06:51:42.548Z,9.1
2019-05-17T06:52:43.372Z,9.3
2019-05-17T06:53:43.350Z,9.3
2019-05-17T06:54:41.695Z,9.4
2019-05-17T06:55:42.358Z,9.3
2019-05-17T06:56:42.181Z,9.1
2019-05-17T06:57:43.139Z,8.4
2019-05-17T06:58:41.192Z,8.8
2019-05-17T06:59:41.214Z,8.4
2019-05-17T07:00:41.218Z,9.1
2019-05-17T07:01:41.338Z,9.1
2019-05-17T07:02:41.312Z,8.8
2019-05-17T07:03:41.524Z,8.5
2019-05-17T07:04:41.546Z,8.1
2019-05-17T07:05:41.571Z,8.5
2019-05-17T07:06:41.563Z,8
2019-05-17T07:07:41.571Z,8.3
2019-05-17T07:08:41.579Z,8.1
2019-05-17T07:09:41.752Z,8
2019-05-17T07:10:41.591Z,8.1
2019-05-17T07:11:41.611Z,8.1
2019-05-17T07:12:54.811Z,8.2
2019-05-17T07:13:41.767Z,7.9
2019-05-17T07:14:41.610Z,8.1
2019-05-17T07:15:47.009Z,8.1
2019-05-17T07:16:41.790Z,8
2019-05-17T07:17:41.783Z,7.9
2019-05-17T07:18:41.796Z,7.7
2019-05-17T07:19:41.846Z,6.4
2019-05-17T07:20:41.887Z,7.1
2019-05-17T07:21:41.892Z,6.5
2019-05-17T07:22:41.900Z,7.4
2019-05-17T07:23:41.939Z,7.2
2019-05-17T07:24:41.976Z,6.7
2019-05-17T07:25:42.024Z,6.5
2019-05-17T07:26:42.032Z,6.3
2019-05-17T07:27:45.669Z,6.7
2019-05-17T07:28:42.183Z,6.3
2019-05-17T07:29:42.190Z,6.3
2019-05-17T07:30:42.256Z,6.7
2019-05-17T07:31:42.244Z,6.2
2019-05-17T07:32:42.281Z,6.6
2019-05-17T07:33:42.307Z,6.4
2019-05-17T07:34:42.322Z,6.6
2019-05-17T07:35:42.357Z,6.9
2019-05-17T07:36:42.354Z,6.5
2019-05-17T07:37:42.371Z,6.4
2019-05-17T07:38:42.388Z,7.2
2019-05-17T07:39:42.423Z,6.5
2019-05-17T07:40:42.417Z,6.7
2019-05-17T07:41:42.412Z,6.9
2019-05-17T07:42:42.416Z,7
2019-05-17T07:43:42.411Z,7.2
2019-05-17T07:44:44.069Z,6.7
2019-05-17T07:45:42.475Z,6.8
2019-05-17T07:46:42.523Z,6.9
2019-05-17T07:47:42.527Z,7
2019-05-17T07:48:42.525Z,6.9
2019-05-17T07:49:42.540Z,6.8
2019-05-17T07:50:42.589Z,7.2
2019-05-17T07:51:42.665Z,7.4
2019-05-17T07:52:42.697Z,7.6
2019-05-17T07:53:42.718Z,7.3
2019-05-17T07:54:42.751Z,7.6
2019-05-17T07:55:42.837Z,8.3
2019-05-17T07:56:42.871Z,7.8
2019-05-17T07:57:43.883Z,7.9
2019-05-17T07:58:42.894Z,8.2
2019-05-17T07:59:42.901Z,7.7
2019-05-17T08:00:42.944Z,8.6
2019-05-17T08:01:43.006Z,7.5
2019-05-17T08:02:43.000Z,7.9
2019-05-17T08:03:43.197Z,7.2
2019-05-17T08:04:43.196Z,8
2019-05-17T08:05:43.191Z,7.5
2019-05-17T08:06:43.396Z,7.4
2019-05-17T08:07:43.381Z,7.6
2019-05-17T08:08:43.552Z,7.4
2019-05-17T08:09:43.550Z,7.3
2019-05-17T08:10:43.697Z,7.4
2019-05-17T08:11:44.809Z,7.3
2019-05-17T08:12:43.758Z,7.6
2019-05-17T08:13:43.769Z,7.5
2019-05-17T08:14:43.790Z,7.6
2019-05-17T08:15:43.804Z,7.8
2019-05-17T08:16:43.825Z,7.6
2019-05-17T08:17:43.821Z,7.1
2019-05-17T08:18:43.819Z,7.8
2019-05-17T08:19:43.833Z,7.6
2019-05-17T08:20:43.859Z,8.1
2019-05-17T08:21:43.914Z,7.7
2019-05-17T08:22:43.929Z,7.5
2019-05-17T08:23:44.008Z,7.6
2019-05-17T08:29:40.370Z,7.8
2019-05-17T08:30:40.800Z,7.9
2019-05-17T08:31:40.369Z,8.1
2019-05-17T08:32:40.365Z,7.6
2019-05-17T08:33:40.598Z,8.2
2019-05-17T08:34:40.142Z,7.4
2019-05-17T08:35:40.108Z,7.7
2019-05-17T08:36:40.458Z,7.4
2019-05-17T08:37:42.199Z,7.5
2019-05-17T08:38:39.837Z,8
2019-05-17T08:39:40.116Z,7.9
2019-05-17T08:40:40.592Z,8.2
2019-05-17T08:41:40.382Z,9.4
2019-05-17T08:42:40.557Z,11.5
2019-05-17T08:43:46.415Z,15.5
2019-05-17T08:44:39.886Z,12.9
2019-05-17T08:45:40.572Z,10.7
2019-05-17T08:46:39.873Z,12.4
2019-05-17T08:47:40.063Z,10
2019-05-17T08:48:40.242Z,8
2019-05-17T08:49:40.374Z,7.6
2019-05-17T08:50:40.577Z,7.2
2019-05-17T08:51:40.267Z,6.9
2019-05-17T08:52:40.628Z,7.1
2019-05-17T08:53:40.296Z,7.1
2019-05-17T08:54:42.809Z,6.8
2019-05-17T08:55:40.972Z,6.7
2019-05-17T08:56:40.516Z,8.3
2019-05-17T08:57:40.459Z,8.1
2019-05-17T08:58:40.544Z,7.3
2019-05-17T08:59:40.701Z,7.4
2019-05-17T09:00:41.049Z,7.9
2019-05-17T09:01:41.682Z,7.8
2019-05-17T09:02:41.152Z,6.9
2019-05-17T09:03:41.169Z,6.6
2019-05-17T09:04:40.711Z,6.4
2019-05-17T09:05:41.633Z,6.9
2019-05-17T09:06:40.852Z,6.7
2019-05-17T09:07:40.902Z,7.4
2019-05-17T09:08:40.889Z,7.3
2019-05-17T09:09:40.916Z,8.3
2019-05-17T09:10:41.153Z,7.7
2019-05-17T09:11:41.007Z,7.1
2019-05-17T09:12:41.254Z,7.3
2019-05-17T09:13:53.390Z,6.8
2019-05-17T09:14:41.133Z,7.8
2019-05-17T09:15:41.141Z,7.5
2019-05-17T09:16:41.135Z,8.5
2019-05-17T09:17:41.172Z,8.2
2019-05-17T09:18:41.191Z,8.4
2019-05-17T09:19:41.223Z,8.1
2019-05-17T09:20:41.231Z,8
2019-05-17T09:21:41.247Z,8
2019-05-17T09:22:41.274Z,8.7
2019-05-17T09:23:41.283Z,8
2019-05-17T09:24:41.286Z,8.5
2019-05-17T09:25:41.306Z,8.3
2019-05-17T09:26:41.316Z,8
2019-05-17T09:27:41.337Z,8.2
2019-05-17T09:28:41.380Z,8.5
2019-05-17T09:29:41.362Z,7.9
2019-05-17T09:30:41.368Z,8.1
2019-05-17T09:31:41.363Z,8.6
2019-05-17T09:32:41.400Z,8
2019-05-17T09:33:41.443Z,8
2019-05-17T09:34:41.432Z,9.6
2019-05-17T09:35:41.626Z,9.1
2019-05-17T09:36:42.612Z,9.2
2019-05-17T09:37:41.751Z,9.1
2019-05-17T09:38:41.672Z,8.7
2019-05-17T09:39:41.677Z,9.1
2019-05-17T09:40:41.671Z,8.5
2019-05-17T09:41:41.837Z,8.7
2019-05-17T09:42:41.861Z,9
2019-05-17T09:43:41.906Z,9.1
2019-05-17T09:44:41.910Z,8.7
2019-05-17T09:45:41.915Z,8.8
2019-05-17T09:46:42.004Z,9.2
2019-05-17T09:47:42.012Z,7.7
2019-05-17T09:48:42.053Z,8
2019-05-17T09:49:42.121Z,7.9
2019-05-17T09:50:42.141Z,7.6
2019-05-17T09:51:42.131Z,7.8
2019-05-17T09:52:42.151Z,8
2019-05-17T09:53:42.188Z,7.7
2019-05-17T09:54:45.257Z,7.8
2019-05-17T09:55:42.328Z,8.4
2019-05-17T09:56:42.506Z,8.2
2019-05-17T09:57:42.502Z,7.8
2019-05-17T09:58:42.557Z,8.5
2019-05-17T09:59:42.638Z,8.5
2019-05-17T10:00:42.650Z,8.2
2019-05-17T10:01:42.651Z,8.8
2019-05-17T10:02:42.651Z,8.7
2019-05-17T10:03:42.656Z,8.2
2019-05-17T10:04:42.674Z,8.4
2019-05-17T10:05:42.663Z,8.5
2019-05-17T10:06:43.828Z,8.5
2019-05-17T10:07:42.847Z,8.8
2019-05-17T10:08:42.863Z,8.7
2019-05-17T10:09:42.880Z,8.8
2019-05-17T10:10:42.933Z,9.2
2019-05-17T10:11:42.929Z,8.8
2019-05-17T10:12:42.910Z,8.6
2019-05-17T10:13:44.132Z,8.1
2019-05-17T10:14:43.119Z,9
2019-05-17T10:15:43.147Z,9.2
2019-05-17T10:16:43.156Z,9
2019-05-17T10:17:43.164Z,8.5
2019-05-17T10:18:43.159Z,9.1
2019-05-17T10:19:43.220Z,8.3
2019-05-17T10:20:43.209Z,8.5
2019-05-17T10:21:43.223Z,8.6
2019-05-17T10:22:43.204Z,8.3
2019-05-17T10:23:43.214Z,8.5
2019-05-17T10:24:43.218Z,8.1
2019-05-17T10:25:43.212Z,8.2
2019-05-17T10:26:43.216Z,8.4
2019-05-17T10:27:43.204Z,8
2019-05-17T10:28:43.201Z,8
2019-05-17T10:29:43.257Z,7.4
2019-05-17T10:30:43.291Z,8
2019-05-17T10:31:43.310Z,7.9
2019-05-17T10:32:43.289Z,8.2
2019-05-17T10:33:43.293Z,7.9
2019-05-17T10:34:43.349Z,8.6
2019-05-17T10:35:43.367Z,8.8
2019-05-17T10:36:43.379Z,8.1
2019-05-17T10:37:43.375Z,7.8
2019-05-17T10:38:43.386Z,7.9
2019-05-17T10:39:43.387Z,7.3
2019-05-17T10:40:43.420Z,6.9
2019-05-17T10:41:43.411Z,6.9
2019-05-17T10:42:43.415Z,7.2
2019-05-17T10:43:43.407Z,7.7
2019-05-17T10:44:47.523Z,8
2019-05-17T10:45:43.579Z,7.9
2019-05-17T10:46:43.577Z,8.2
2019-05-17T10:47:43.574Z,8.4
2019-05-17T10:48:43.582Z,8
2019-05-17T10:49:43.594Z,8.5
2019-05-17T10:50:43.670Z,8.8
2019-05-17T10:51:43.672Z,8.8
2019-05-17T10:52:43.657Z,9.9
2019-05-17T10:53:43.832Z,9.1
2019-05-17T10:54:43.836Z,9.4
2019-05-17T10:55:43.868Z,9.8
2019-05-17T10:56:43.924Z,9.6
2019-05-17T10:57:43.938Z,9.4
2019-05-17T10:58:43.950Z,9.3
2019-05-17T10:59:44.000Z,9
2019-05-17T11:00:44.060Z,9.2
2019-05-17T11:01:44.066Z,9.7
2019-05-17T11:02:44.086Z,8.7
2019-05-17T11:03:44.079Z,9.8
2019-05-17T11:04:44.084Z,9.7
2019-05-17T11:05:44.191Z,8.4
2019-05-17T11:06:44.209Z,9.3
2019-05-17T11:07:44.219Z,8.7
2019-05-17T11:08:44.225Z,10
2019-05-17T11:09:44.235Z,9.2
2019-05-17T11:10:44.299Z,9.2
2019-05-17T11:11:44.320Z,9.4
2019-05-17T11:12:44.319Z,8.7
2019-05-17T11:13:44.336Z,9.4
2019-05-17T11:14:52.458Z,9.6
2019-05-17T11:15:44.510Z,9.1
2019-05-17T11:16:44.692Z,9.3
2019-05-17T11:17:44.533Z,8.7
2019-05-17T11:18:44.534Z,9.1
2019-05-17T11:19:44.577Z,9.2
2019-05-17T11:20:44.634Z,9.1
2019-05-17T11:21:44.652Z,9.2
2019-05-17T11:22:44.697Z,9.4
2019-05-17T11:23:44.731Z,8.9
2019-05-17T11:24:44.766Z,9.9
2019-05-17T11:25:46.043Z,9.1
2019-05-17T11:26:44.844Z,9.1
2019-05-17T11:27:44.858Z,8.9
2019-05-17T11:28:44.873Z,8.2
2019-05-17T11:29:44.912Z,8.7
2019-05-17T11:30:44.921Z,8.9
2019-05-17T11:31:45.020Z,8.4
2019-05-17T11:32:45.050Z,8.9
2019-05-17T11:33:45.104Z,9
2019-05-17T11:34:45.160Z,9.6
2019-05-17T11:35:45.160Z,9.2
2019-05-17T11:36:45.196Z,9.1
2019-05-17T11:37:45.222Z,9.2
2019-05-17T11:38:45.731Z,9.2
2019-05-17T11:39:45.235Z,8.7
2019-05-17T11:40:45.244Z,9
2019-05-17T11:41:45.327Z,8.6
2019-05-17T11:42:45.343Z,8.7
2019-05-17T11:43:45.361Z,9.1
2019-05-17T11:44:45.369Z,8.7
2019-05-17T11:45:45.382Z,8.6
2019-05-17T11:46:45.462Z,9.2
2019-05-17T11:47:45.459Z,8.7
2019-05-17T11:48:45.475Z,8.6
2019-05-17T11:49:45.503Z,8.2
2019-05-17T11:50:45.558Z,7.8
2019-05-17T11:51:45.631Z,8.3
2019-05-17T11:52:45.658Z,8.3
2019-05-17T11:53:45.669Z,8.2
2019-05-17T11:54:45.705Z,8.2
2019-05-17T11:55:45.738Z,10.5
2019-05-17T11:56:45.790Z,8.1
2019-05-17T11:57:45.805Z,9.1
2019-05-17T11:58:45.824Z,8.9
2019-05-17T11:59:45.842Z,8.5
2019-05-17T12:00:45.881Z,8.1
2019-05-17T12:01:45.933Z,8.5
2019-05-17T12:02:45.996Z,8.4
2019-05-17T12:03:46.002Z,7.7
2019-05-17T12:04:46.021Z,7.9
2019-05-17T12:05:46.015Z,7.9
2019-05-17T12:06:46.214Z,7.8
2019-05-17T12:07:46.293Z,7.5
2019-05-17T12:08:46.314Z,7.5
2019-05-17T12:09:46.328Z,7.4
2019-05-17T12:10:46.426Z,7.5
2019-05-17T12:11:46.383Z,7.7
2019-05-17T12:12:46.407Z,7.6
2019-05-17T12:13:46.460Z,7.7
2019-05-17T12:14:46.484Z,6.8
2019-05-17T12:15:46.453Z,6.5
2019-05-17T12:16:47.646Z,6.4
2019-05-17T12:18:46.712Z,6.5
2019-05-17T12:19:46.739Z,6.5
2019-05-17T12:20:46.748Z,6.2
2019-05-17T12:21:46.764Z,6.4
2019-05-17T12:22:46.836Z,6.5
2019-05-17T12:23:46.836Z,5.8
2019-05-17T12:24:46.846Z,6.4
2019-05-17T12:25:46.875Z,6
2019-05-17T12:26:47.512Z,6.1
2019-05-17T12:27:46.938Z,6
2019-05-17T12:28:46.996Z,5.6
2019-05-17T12:29:47.046Z,5.8
2019-05-17T12:30:47.057Z,5.9
2019-05-17T12:31:47.079Z,5.4
2019-05-17T12:32:47.127Z,5.3
2019-05-17T12:33:47.141Z,6.4
2019-05-17T12:34:47.145Z,6.3
2019-05-17T12:35:47.180Z,6.3
2019-05-17T12:51:49.602Z,4.2
2019-05-17T12:52:50.006Z,3.9
2019-05-17T12:55:49.311Z,4.3
2019-05-17T12:56:50.194Z,4.4
2019-05-17T12:57:49.776Z,4.2
2019-05-17T12:58:49.333Z,4.3
2019-05-17T13:00:49.509Z,4.8
2019-05-17T13:22:49.289Z,3.2
2019-05-17T13:23:49.317Z,3.5
2019-05-17T13:24:49.384Z,3.7
2019-05-17T13:25:49.400Z,3.7
2019-05-17T13:26:49.407Z,3.9
2019-05-17T13:27:49.450Z,3.5
2019-05-17T13:28:49.490Z,4
2019-05-17T13:29:49.524Z,3.7
2019-05-17T13:30:49.608Z,3.7
2019-05-17T13:31:49.699Z,4
2019-05-17T13:32:49.733Z,3.8
2019-05-17T13:33:49.777Z,4
2019-05-17T13:34:49.904Z,3.6
2019-05-17T13:35:49.948Z,3.6
2019-05-17T13:36:50.035Z,3.4
2019-05-17T13:37:50.064Z,2.7
2019-05-17T13:38:50.070Z,2.6
2019-05-17T13:39:50.135Z,2.6
2019-05-17T13:40:50.156Z,2.4
2019-05-17T13:41:50.174Z,2.6
2019-05-17T13:42:50.185Z,2.3
2019-05-17T13:43:50.206Z,2.4
2019-05-17T13:44:50.234Z,2.4
2019-05-17T13:45:50.285Z,2.4
2019-05-17T13:46:50.301Z,2.5
2019-05-17T13:47:50.330Z,2.3
2019-05-17T13:48:50.351Z,2.5
2019-05-17T13:49:50.359Z,2.8
2019-05-17T13:50:51.938Z,3
2019-05-17T13:51:50.438Z,3.3
2019-05-17T13:52:50.464Z,3.5
2019-05-17T13:53:50.474Z,2.9
2019-05-17T13:54:50.487Z,3.6
2019-05-17T13:55:50.559Z,3.2
2019-05-17T13:56:50.555Z,3.2
2019-05-17T13:57:50.595Z,3.2
2019-05-17T13:58:50.670Z,3.5
2019-05-17T13:59:50.692Z,3.5
2019-05-17T14:00:50.732Z,3.3
2019-05-17T14:01:50.777Z,3.3
2019-05-17T14:02:50.948Z,3.3
2019-05-17T14:03:50.807Z,3.2